sensor_id;sensor_type;location;lat;lon;timestamp;P1;durP1;ratioP1;P2;durP2;ratioP2
11113;SDS011;5610;52.154;9.198;2023-05-24T00:01:09;16.20;;;5.60;;
11113;SDS011;5610;52.154;9.198;2023-05-24T00:03:54;15.67;;;5.00;;
11113;SDS011;5610;52.154;9.198;2023-05-24T00:06:41;19.70;;;5.13;;
11113;SDS011;5610;52.154;9.198;2023-05-24T00:09:27;15.77;;;5.90;;
11113;SDS011;5610;52.154;9.198;2023-05-24T00:12:13;14.73;;;5.57;;
11113;SDS011;5610;52.154;9.198;2023-05-24T00:15:00;15.10;;;5.47;;
11113;SDS011;5610;52.154;9.198;2023-05-24T00:17:46;21.90;;;6.07;;
11113;SDS011;5610;52.154;9.198;2023-05-24T00:20:31;25.03;;;6.27;;
11113;SDS011;5610;52.154;9.198;2023-05-24T00:23:16;18.57;;;6.23;;
11113;SDS011;5610;52.154;9.198;2023-05-24T00:26:01;20.23;;;5.87;;
11113;SDS011;5610;52.154;9.198;2023-05-24T00:28:46;15.40;;;5.80;;
11113;SDS011;5610;52.154;9.198;2023-05-24T00:31:33;21.13;;;6.60;;
11113;SDS011;5610;52.154;9.198;2023-05-24T00:34:19;21.60;;;6.63;;
11113;SDS011;5610;52.154;9.198;2023-05-24T00:37:04;17.20;;;5.70;;
11113;SDS011;5610;52.154;9.198;2023-05-24T00:39:50;17.37;;;5.30;;
11113;SDS011;5610;52.154;9.198;2023-05-24T00:42:35;13.63;;;5.50;;
11113;SDS011;5610;52.154;9.198;2023-05-24T00:45:20;16.80;;;5.97;;
11113;SDS011;5610;52.154;9.198;2023-05-24T00:48:07;13.37;;;5.40;;
11113;SDS011;5610;52.154;9.198;2023-05-24T00:50:52;13.60;;;5.53;;
11113;SDS011;5610;52.154;9.198;2023-05-24T00:53:38;14.33;;;5.70;;
11113;SDS011;5610;52.154;9.198;2023-05-24T00:56:25;17.03;;;5.73;;
11113;SDS011;5610;52.154;9.198;2023-05-24T00:59:10;16.70;;;6.50;;
11113;SDS011;5610;52.154;9.198;2023-05-24T01:01:55;19.30;;;6.30;;
11113;SDS011;5610;52.154;9.198;2023-05-24T01:04:42;17.50;;;5.67;;
11113;SDS011;5610;52.154;9.198;2023-05-24T01:07:29;13.33;;;4.97;;
11113;SDS011;5610;52.154;9.198;2023-05-24T01:10:24;24.97;;;6.20;;
11113;SDS011;5610;52.154;9.198;2023-05-24T01:13:14;18.90;;;5.67;;
11113;SDS011;5610;52.154;9.198;2023-05-24T01:16:09;25.90;;;6.73;;
11113;SDS011;5610;52.154;9.198;2023-05-24T01:19:01;16.67;;;5.93;;
11113;SDS011;5610;52.154;9.198;2023-05-24T01:21:58;14.40;;;5.70;;
11113;SDS011;5610;52.154;9.198;2023-05-24T01:24:57;23.27;;;5.67;;
11113;SDS011;5610;52.154;9.198;2023-05-24T01:27:49;17.27;;;6.70;;
11113;SDS011;5610;52.154;9.198;2023-05-24T01:30:34;16.00;;;6.20;;
11113;SDS011;5610;52.154;9.198;2023-05-24T01:33:20;21.17;;;6.10;;
11113;SDS011;5610;52.154;9.198;2023-05-24T01:36:06;17.03;;;6.30;;
11113;SDS011;5610;52.154;9.198;2023-05-24T01:38:51;21.57;;;5.97;;
11113;SDS011;5610;52.154;9.198;2023-05-24T01:41:37;19.23;;;6.17;;
11113;SDS011;5610;52.154;9.198;2023-05-24T01:44:30;18.77;;;6.40;;
11113;SDS011;5610;52.154;9.198;2023-05-24T01:47:21;21.03;;;8.13;;
11113;SDS011;5610;52.154;9.198;2023-05-24T01:50:16;21.10;;;7.20;;
11113;SDS011;5610;52.154;9.198;2023-05-24T01:53:07;17.53;;;6.10;;
11113;SDS011;5610;52.154;9.198;2023-05-24T01:55:56;17.23;;;6.60;;
11113;SDS011;5610;52.154;9.198;2023-05-24T01:58:45;23.60;;;6.73;;
11113;SDS011;5610;52.154;9.198;2023-05-24T02:01:33;18.87;;;6.40;;
11113;SDS011;5610;52.154;9.198;2023-05-24T02:04:18;17.63;;;6.73;;
11113;SDS011;5610;52.154;9.198;2023-05-24T02:07:03;18.23;;;5.53;;
11113;SDS011;5610;52.154;9.198;2023-05-24T02:09:49;19.43;;;7.13;;
11113;SDS011;5610;52.154;9.198;2023-05-24T02:12:34;15.70;;;6.23;;
11113;SDS011;5610;52.154;9.198;2023-05-24T02:15:19;23.90;;;7.67;;
11113;SDS011;5610;52.154;9.198;2023-05-24T02:18:06;20.27;;;6.73;;
11113;SDS011;5610;52.154;9.198;2023-05-24T02:20:52;18.80;;;6.50;;
11113;SDS011;5610;52.154;9.198;2023-05-24T02:23:38;15.40;;;6.57;;
11113;SDS011;5610;52.154;9.198;2023-05-24T02:26:24;16.07;;;6.67;;
11113;SDS011;5610;52.154;9.198;2023-05-24T02:29:09;20.27;;;7.73;;
11113;SDS011;5610;52.154;9.198;2023-05-24T02:31:55;23.10;;;7.50;;
11113;SDS011;5610;52.154;9.198;2023-05-24T02:34:41;25.77;;;7.67;;
11113;SDS011;5610;52.154;9.198;2023-05-24T02:37:27;21.57;;;7.37;;
11113;SDS011;5610;52.154;9.198;2023-05-24T02:40:12;20.77;;;7.53;;
11113;SDS011;5610;52.154;9.198;2023-05-24T02:42:57;23.37;;;6.67;;
11113;SDS011;5610;52.154;9.198;2023-05-24T02:45:42;17.93;;;7.10;;
11113;SDS011;5610;52.154;9.198;2023-05-24T02:48:27;28.70;;;8.10;;
11113;SDS011;5610;52.154;9.198;2023-05-24T02:51:14;19.97;;;6.70;;
11113;SDS011;5610;52.154;9.198;2023-05-24T02:53:59;22.90;;;6.53;;
11113;SDS011;5610;52.154;9.198;2023-05-24T02:56:45;20.20;;;6.93;;
11113;SDS011;5610;52.154;9.198;2023-05-24T02:59:33;20.90;;;6.80;;
11113;SDS011;5610;52.154;9.198;2023-05-24T03:02:19;24.23;;;6.77;;
11113;SDS011;5610;52.154;9.198;2023-05-24T03:05:05;30.43;;;7.93;;
11113;SDS011;5610;52.154;9.198;2023-05-24T03:07:52;22.87;;;7.57;;
11113;SDS011;5610;52.154;9.198;2023-05-24T03:10:37;19.80;;;7.00;;
11113;SDS011;5610;52.154;9.198;2023-05-24T03:13:24;28.50;;;7.33;;
11113;SDS011;5610;52.154;9.198;2023-05-24T03:16:09;24.40;;;7.30;;
11113;SDS011;5610;52.154;9.198;2023-05-24T03:18:54;19.43;;;7.30;;
11113;SDS011;5610;52.154;9.198;2023-05-24T03:21:39;25.23;;;6.70;;
11113;SDS011;5610;52.154;9.198;2023-05-24T03:24:25;22.53;;;7.53;;
11113;SDS011;5610;52.154;9.198;2023-05-24T03:27:10;18.83;;;6.40;;
11113;SDS011;5610;52.154;9.198;2023-05-24T03:29:56;18.00;;;7.57;;
11113;SDS011;5610;52.154;9.198;2023-05-24T03:32:44;28.93;;;7.97;;
11113;SDS011;5610;52.154;9.198;2023-05-24T03:35:29;26.17;;;7.57;;
11113;SDS011;5610;52.154;9.198;2023-05-24T03:38:15;22.70;;;7.27;;
11113;SDS011;5610;52.154;9.198;2023-05-24T03:41:04;26.50;;;7.57;;
11113;SDS011;5610;52.154;9.198;2023-05-24T03:43:51;16.53;;;7.83;;
11113;SDS011;5610;52.154;9.198;2023-05-24T03:46:37;25.63;;;7.20;;
11113;SDS011;5610;52.154;9.198;2023-05-24T03:49:22;19.50;;;7.40;;
11113;SDS011;5610;52.154;9.198;2023-05-24T03:52:07;19.63;;;7.17;;
11113;SDS011;5610;52.154;9.198;2023-05-24T03:54:52;25.43;;;7.47;;
11113;SDS011;5610;52.154;9.198;2023-05-24T03:57:39;32.07;;;8.23;;
11113;SDS011;5610;52.154;9.198;2023-05-24T04:00:25;23.50;;;7.17;;
11113;SDS011;5610;52.154;9.198;2023-05-24T04:03:11;18.80;;;6.03;;
11113;SDS011;5610;52.154;9.198;2023-05-24T04:05:56;23.17;;;7.00;;
11113;SDS011;5610;52.154;9.198;2023-05-24T04:08:42;20.27;;;6.70;;
11113;SDS011;5610;52.154;9.198;2023-05-24T04:11:27;23.90;;;6.83;;
11113;SDS011;5610;52.154;9.198;2023-05-24T04:14:14;19.20;;;6.73;;
11113;SDS011;5610;52.154;9.198;2023-05-24T04:16:59;19.07;;;6.87;;
11113;SDS011;5610;52.154;9.198;2023-05-24T04:19:46;26.70;;;8.07;;
11113;SDS011;5610;52.154;9.198;2023-05-24T04:22:31;13.27;;;6.40;;
11113;SDS011;5610;52.154;9.198;2023-05-24T04:25:19;18.37;;;6.47;;
11113;SDS011;5610;52.154;9.198;2023-05-24T04:28:05;17.30;;;6.20;;
11113;SDS011;5610;52.154;9.198;2023-05-24T04:30:52;20.43;;;7.33;;
11113;SDS011;5610;52.154;9.198;2023-05-24T04:33:38;20.77;;;6.50;;
11113;SDS011;5610;52.154;9.198;2023-05-24T04:36:24;26.40;;;7.40;;
11113;SDS011;5610;52.154;9.198;2023-05-24T04:39:11;21.30;;;6.50;;
11113;SDS011;5610;52.154;9.198;2023-05-24T04:41:56;18.47;;;6.53;;
11113;SDS011;5610;52.154;9.198;2023-05-24T04:44:43;22.70;;;7.27;;
11113;SDS011;5610;52.154;9.198;2023-05-24T04:47:30;19.30;;;6.50;;
11113;SDS011;5610;52.154;9.198;2023-05-24T04:50:15;22.47;;;6.43;;
11113;SDS011;5610;52.154;9.198;2023-05-24T04:53:01;24.87;;;6.83;;
11113;SDS011;5610;52.154;9.198;2023-05-24T04:55:46;20.90;;;7.17;;
11113;SDS011;5610;52.154;9.198;2023-05-24T04:58:32;24.37;;;7.70;;
11113;SDS011;5610;52.154;9.198;2023-05-24T05:01:17;20.57;;;6.97;;
11113;SDS011;5610;52.154;9.198;2023-05-24T05:04:05;21.70;;;6.90;;
11113;SDS011;5610;52.154;9.198;2023-05-24T05:06:51;25.03;;;7.10;;
11113;SDS011;5610;52.154;9.198;2023-05-24T05:09:36;24.43;;;7.50;;
11113;SDS011;5610;52.154;9.198;2023-05-24T05:12:21;15.07;;;6.33;;
11113;SDS011;5610;52.154;9.198;2023-05-24T05:15:07;25.67;;;8.10;;
11113;SDS011;5610;52.154;9.198;2023-05-24T05:17:53;19.20;;;7.17;;
11113;SDS011;5610;52.154;9.198;2023-05-24T05:20:40;17.90;;;7.10;;
11113;SDS011;5610;52.154;9.198;2023-05-24T05:23:25;22.30;;;6.33;;
11113;SDS011;5610;52.154;9.198;2023-05-24T05:26:10;23.63;;;6.70;;
11113;SDS011;5610;52.154;9.198;2023-05-24T05:28:55;17.93;;;7.20;;
11113;SDS011;5610;52.154;9.198;2023-05-24T05:31:41;25.00;;;6.53;;
11113;SDS011;5610;52.154;9.198;2023-05-24T05:34:26;24.13;;;7.07;;
11113;SDS011;5610;52.154;9.198;2023-05-24T05:37:12;24.40;;;7.40;;
11113;SDS011;5610;52.154;9.198;2023-05-24T05:39:58;13.37;;;6.03;;
11113;SDS011;5610;52.154;9.198;2023-05-24T05:42:43;20.23;;;6.90;;
11113;SDS011;5610;52.154;9.198;2023-05-24T05:45:29;26.93;;;7.37;;
11113;SDS011;5610;52.154;9.198;2023-05-24T05:48:14;18.67;;;5.93;;
11113;SDS011;5610;52.154;9.198;2023-05-24T05:51:00;16.73;;;6.20;;
11113;SDS011;5610;52.154;9.198;2023-05-24T05:53:46;17.07;;;6.27;;
11113;SDS011;5610;52.154;9.198;2023-05-24T05:56:31;17.00;;;6.40;;
11113;SDS011;5610;52.154;9.198;2023-05-24T05:59:18;21.73;;;7.00;;
11113;SDS011;5610;52.154;9.198;2023-05-24T06:02:04;16.07;;;5.50;;
11113;SDS011;5610;52.154;9.198;2023-05-24T06:04:50;12.47;;;5.87;;
11113;SDS011;5610;52.154;9.198;2023-05-24T06:07:35;20.10;;;7.00;;
11113;SDS011;5610;52.154;9.198;2023-05-24T06:10:22;19.27;;;6.17;;
11113;SDS011;5610;52.154;9.198;2023-05-24T06:13:08;20.40;;;7.77;;
11113;SDS011;5610;52.154;9.198;2023-05-24T06:15:53;15.33;;;6.77;;
11113;SDS011;5610;52.154;9.198;2023-05-24T06:18:38;26.40;;;6.67;;
11113;SDS011;5610;52.154;9.198;2023-05-24T06:21:24;24.13;;;7.87;;
11113;SDS011;5610;52.154;9.198;2023-05-24T06:24:10;22.10;;;5.83;;
11113;SDS011;5610;52.154;9.198;2023-05-24T06:26:57;22.93;;;7.50;;
11113;SDS011;5610;52.154;9.198;2023-05-24T06:29:42;16.43;;;6.10;;
11113;SDS011;5610;52.154;9.198;2023-05-24T06:32:27;21.27;;;7.37;;
11113;SDS011;5610;52.154;9.198;2023-05-24T06:35:12;21.40;;;7.00;;
11113;SDS011;5610;52.154;9.198;2023-05-24T06:37:57;20.90;;;7.17;;
11113;SDS011;5610;52.154;9.198;2023-05-24T06:40:42;16.23;;;6.67;;
11113;SDS011;5610;52.154;9.198;2023-05-24T06:43:29;17.77;;;6.90;;
11113;SDS011;5610;52.154;9.198;2023-05-24T06:46:16;21.83;;;7.13;;
11113;SDS011;5610;52.154;9.198;2023-05-24T06:49:01;18.77;;;7.63;;
11113;SDS011;5610;52.154;9.198;2023-05-24T06:51:46;16.87;;;6.97;;
11113;SDS011;5610;52.154;9.198;2023-05-24T06:54:32;19.13;;;6.90;;
11113;SDS011;5610;52.154;9.198;2023-05-24T06:57:17;15.33;;;6.67;;
11113;SDS011;5610;52.154;9.198;2023-05-24T07:00:04;17.63;;;6.13;;
11113;SDS011;5610;52.154;9.198;2023-05-24T07:02:54;27.83;;;7.40;;
11113;SDS011;5610;52.154;9.198;2023-05-24T07:05:40;17.37;;;6.00;;
11113;SDS011;5610;52.154;9.198;2023-05-24T07:08:25;18.00;;;6.30;;
11113;SDS011;5610;52.154;9.198;2023-05-24T07:11:11;18.53;;;6.00;;
11113;SDS011;5610;52.154;9.198;2023-05-24T07:13:56;16.23;;;5.80;;
11113;SDS011;5610;52.154;9.198;2023-05-24T07:16:43;13.43;;;6.30;;
11113;SDS011;5610;52.154;9.198;2023-05-24T07:19:29;15.67;;;6.10;;
11113;SDS011;5610;52.154;9.198;2023-05-24T07:22:16;21.33;;;7.13;;
11113;SDS011;5610;52.154;9.198;2023-05-24T07:25:01;12.17;;;6.23;;
11113;SDS011;5610;52.154;9.198;2023-05-24T07:27:47;22.33;;;6.13;;
11113;SDS011;5610;52.154;9.198;2023-05-24T07:30:32;18.43;;;6.77;;
11113;SDS011;5610;52.154;9.198;2023-05-24T07:33:19;17.03;;;6.70;;
11113;SDS011;5610;52.154;9.198;2023-05-24T07:36:04;14.57;;;6.00;;
11113;SDS011;5610;52.154;9.198;2023-05-24T07:38:50;15.23;;;6.60;;
11113;SDS011;5610;52.154;9.198;2023-05-24T07:41:35;13.03;;;6.20;;
11113;SDS011;5610;52.154;9.198;2023-05-24T07:44:21;20.73;;;6.40;;
11113;SDS011;5610;52.154;9.198;2023-05-24T07:47:07;21.13;;;6.90;;
11113;SDS011;5610;52.154;9.198;2023-05-24T07:49:53;15.33;;;6.00;;
11113;SDS011;5610;52.154;9.198;2023-05-24T07:52:39;15.93;;;6.17;;
11113;SDS011;5610;52.154;9.198;2023-05-24T07:55:24;15.80;;;6.40;;
11113;SDS011;5610;52.154;9.198;2023-05-24T07:58:10;21.13;;;6.90;;
11113;SDS011;5610;52.154;9.198;2023-05-24T08:00:56;20.40;;;6.30;;
11113;SDS011;5610;52.154;9.198;2023-05-24T08:03:41;15.97;;;6.10;;
11113;SDS011;5610;52.154;9.198;2023-05-24T08:06:27;15.47;;;6.23;;
11113;SDS011;5610;52.154;9.198;2023-05-24T08:09:12;17.60;;;6.40;;
11113;SDS011;5610;52.154;9.198;2023-05-24T08:11:58;17.97;;;5.93;;
11113;SDS011;5610;52.154;9.198;2023-05-24T08:14:43;14.80;;;5.63;;
11113;SDS011;5610;52.154;9.198;2023-05-24T08:17:28;15.07;;;5.73;;
11113;SDS011;5610;52.154;9.198;2023-05-24T08:20:14;15.43;;;6.20;;
11113;SDS011;5610;52.154;9.198;2023-05-24T08:23:01;20.20;;;6.30;;
11113;SDS011;5610;52.154;9.198;2023-05-24T08:25:47;18.93;;;7.13;;
11113;SDS011;5610;52.154;9.198;2023-05-24T08:28:32;15.97;;;6.70;;
11113;SDS011;5610;52.154;9.198;2023-05-24T08:31:18;13.43;;;6.07;;
11113;SDS011;5610;52.154;9.198;2023-05-24T08:34:03;19.93;;;7.20;;
11113;SDS011;5610;52.154;9.198;2023-05-24T08:36:48;21.73;;;7.10;;
11113;SDS011;5610;52.154;9.198;2023-05-24T08:39:34;20.33;;;6.40;;
11113;SDS011;5610;52.154;9.198;2023-05-24T08:42:20;19.00;;;6.60;;
11113;SDS011;5610;52.154;9.198;2023-05-24T08:45:07;14.80;;;6.20;;
11113;SDS011;5610;52.154;9.198;2023-05-24T08:47:56;21.03;;;6.90;;
11113;SDS011;5610;52.154;9.198;2023-05-24T08:50:41;14.73;;;5.30;;
11113;SDS011;5610;52.154;9.198;2023-05-24T08:53:28;21.20;;;7.20;;
11113;SDS011;5610;52.154;9.198;2023-05-24T08:56:16;14.40;;;6.13;;
11113;SDS011;5610;52.154;9.198;2023-05-24T08:59:02;15.73;;;6.33;;
11113;SDS011;5610;52.154;9.198;2023-05-24T09:01:47;15.33;;;6.70;;
11113;SDS011;5610;52.154;9.198;2023-05-24T09:04:36;14.37;;;6.07;;
11113;SDS011;5610;52.154;9.198;2023-05-24T09:07:23;15.90;;;6.30;;
11113;SDS011;5610;52.154;9.198;2023-05-24T09:10:10;16.57;;;6.53;;
11113;SDS011;5610;52.154;9.198;2023-05-24T09:12:57;13.43;;;6.10;;
11113;SDS011;5610;52.154;9.198;2023-05-24T09:15:46;14.33;;;5.70;;
11113;SDS011;5610;52.154;9.198;2023-05-24T09:18:31;13.83;;;6.07;;
11113;SDS011;5610;52.154;9.198;2023-05-24T09:21:16;14.17;;;5.97;;
11113;SDS011;5610;52.154;9.198;2023-05-24T09:24:06;17.47;;;5.60;;
11113;SDS011;5610;52.154;9.198;2023-05-24T09:26:51;10.00;;;5.50;;
11113;SDS011;5610;52.154;9.198;2023-05-24T09:29:38;16.70;;;6.53;;
11113;SDS011;5610;52.154;9.198;2023-05-24T09:32:24;15.27;;;6.20;;
11113;SDS011;5610;52.154;9.198;2023-05-24T09:35:11;16.80;;;6.70;;
11113;SDS011;5610;52.154;9.198;2023-05-24T09:37:56;15.07;;;5.33;;
11113;SDS011;5610;52.154;9.198;2023-05-24T09:40:43;11.07;;;5.00;;
11113;SDS011;5610;52.154;9.198;2023-05-24T09:43:28;18.07;;;5.93;;
11113;SDS011;5610;52.154;9.198;2023-05-24T09:46:16;19.27;;;6.20;;
11113;SDS011;5610;52.154;9.198;2023-05-24T09:49:02;14.97;;;5.70;;
11113;SDS011;5610;52.154;9.198;2023-05-24T09:51:50;16.93;;;6.17;;
11113;SDS011;5610;52.154;9.198;2023-05-24T09:54:36;21.33;;;6.73;;
11113;SDS011;5610;52.154;9.198;2023-05-24T09:57:23;16.37;;;6.47;;
11113;SDS011;5610;52.154;9.198;2023-05-24T10:00:09;12.27;;;6.03;;
11113;SDS011;5610;52.154;9.198;2023-05-24T10:03:01;16.23;;;6.53;;
11113;SDS011;5610;52.154;9.198;2023-05-24T10:05:48;17.17;;;6.20;;
11113;SDS011;5610;52.154;9.198;2023-05-24T10:08:36;15.27;;;5.80;;
11113;SDS011;5610;52.154;9.198;2023-05-24T10:11:21;17.87;;;6.73;;
11113;SDS011;5610;52.154;9.198;2023-05-24T10:14:07;19.10;;;6.40;;
11113;SDS011;5610;52.154;9.198;2023-05-24T10:16:53;16.77;;;6.87;;
11113;SDS011;5610;52.154;9.198;2023-05-24T10:19:40;16.93;;;7.23;;
11113;SDS011;5610;52.154;9.198;2023-05-24T10:22:25;19.77;;;6.77;;
11113;SDS011;5610;52.154;9.198;2023-05-24T10:25:13;17.33;;;6.90;;
11113;SDS011;5610;52.154;9.198;2023-05-24T10:28:03;20.50;;;6.87;;
11113;SDS011;5610;52.154;9.198;2023-05-24T10:30:56;13.43;;;5.80;;
11113;SDS011;5610;52.154;9.198;2023-05-24T10:33:46;15.47;;;5.97;;
11113;SDS011;5610;52.154;9.198;2023-05-24T10:36:35;12.00;;;5.93;;
11113;SDS011;5610;52.154;9.198;2023-05-24T10:39:23;17.07;;;7.30;;
11113;SDS011;5610;52.154;9.198;2023-05-24T10:42:09;13.50;;;6.00;;
11113;SDS011;5610;52.154;9.198;2023-05-24T10:44:56;13.27;;;6.13;;
11113;SDS011;5610;52.154;9.198;2023-05-24T10:47:41;13.27;;;5.80;;
11113;SDS011;5610;52.154;9.198;2023-05-24T10:50:27;13.63;;;5.70;;
11113;SDS011;5610;52.154;9.198;2023-05-24T10:53:14;16.00;;;6.07;;
11113;SDS011;5610;52.154;9.198;2023-05-24T10:56:01;17.03;;;6.40;;
11113;SDS011;5610;52.154;9.198;2023-05-24T10:58:57;20.57;;;7.03;;
11113;SDS011;5610;52.154;9.198;2023-05-24T11:01:43;15.50;;;7.10;;
11113;SDS011;5610;52.154;9.198;2023-05-24T11:04:32;19.27;;;6.77;;
11113;SDS011;5610;52.154;9.198;2023-05-24T11:07:20;19.63;;;6.40;;
11113;SDS011;5610;52.154;9.198;2023-05-24T11:10:10;10.90;;;5.70;;
11113;SDS011;5610;52.154;9.198;2023-05-24T11:12:59;12.10;;;6.40;;
11113;SDS011;5610;52.154;9.198;2023-05-24T11:15:49;17.03;;;6.30;;
11113;SDS011;5610;52.154;9.198;2023-05-24T11:18:35;11.23;;;6.20;;
11113;SDS011;5610;52.154;9.198;2023-05-24T11:21:21;9.53;;;5.13;;
11113;SDS011;5610;52.154;9.198;2023-05-24T11:24:07;10.00;;;6.00;;
11113;SDS011;5610;52.154;9.198;2023-05-24T11:26:54;12.57;;;5.90;;
11113;SDS011;5610;52.154;9.198;2023-05-24T11:29:41;7.00;;;5.07;;
11113;SDS011;5610;52.154;9.198;2023-05-24T11:32:27;13.60;;;5.83;;
11113;SDS011;5610;52.154;9.198;2023-05-24T11:35:12;15.40;;;5.97;;
11113;SDS011;5610;52.154;9.198;2023-05-24T11:37:58;10.30;;;5.73;;
11113;SDS011;5610;52.154;9.198;2023-05-24T11:40:44;8.37;;;5.17;;
11113;SDS011;5610;52.154;9.198;2023-05-24T11:43:32;12.60;;;6.40;;
11113;SDS011;5610;52.154;9.198;2023-05-24T11:46:17;12.43;;;6.10;;
11113;SDS011;5610;52.154;9.198;2023-05-24T11:49:02;9.87;;;5.50;;
11113;SDS011;5610;52.154;9.198;2023-05-24T11:51:49;11.47;;;5.77;;
11113;SDS011;5610;52.154;9.198;2023-05-24T11:54:36;8.83;;;6.50;;
11113;SDS011;5610;52.154;9.198;2023-05-24T11:57:24;11.73;;;6.43;;
11113;SDS011;5610;52.154;9.198;2023-05-24T12:00:15;9.53;;;6.10;;
11113;SDS011;5610;52.154;9.198;2023-05-24T12:03:08;14.53;;;5.87;;
11113;SDS011;5610;52.154;9.198;2023-05-24T12:05:55;10.37;;;5.90;;
11113;SDS011;5610;52.154;9.198;2023-05-24T12:08:41;7.63;;;5.30;;
11113;SDS011;5610;52.154;9.198;2023-05-24T12:11:26;11.20;;;5.80;;
11113;SDS011;5610;52.154;9.198;2023-05-24T12:14:12;6.30;;;5.33;;
11113;SDS011;5610;52.154;9.198;2023-05-24T12:17:00;7.20;;;5.37;;
11113;SDS011;5610;52.154;9.198;2023-05-24T12:19:47;10.60;;;4.40;;
11113;SDS011;5610;52.154;9.198;2023-05-24T12:22:33;7.40;;;4.60;;
11113;SDS011;5610;52.154;9.198;2023-05-24T12:25:18;9.80;;;5.07;;
11113;SDS011;5610;52.154;9.198;2023-05-24T12:28:04;9.03;;;5.30;;
11113;SDS011;5610;52.154;9.198;2023-05-24T12:30:49;9.77;;;4.77;;
11113;SDS011;5610;52.154;9.198;2023-05-24T12:33:36;9.67;;;5.37;;
11113;SDS011;5610;52.154;9.198;2023-05-24T12:36:22;7.30;;;4.63;;
11113;SDS011;5610;52.154;9.198;2023-05-24T12:39:17;9.67;;;5.50;;
11113;SDS011;5610;52.154;9.198;2023-05-24T12:42:06;12.80;;;5.40;;
11113;SDS011;5610;52.154;9.198;2023-05-24T12:44:52;7.70;;;3.97;;
11113;SDS011;5610;52.154;9.198;2023-05-24T12:47:37;6.40;;;4.10;;
11113;SDS011;5610;52.154;9.198;2023-05-24T12:50:24;9.03;;;5.47;;
11113;SDS011;5610;52.154;9.198;2023-05-24T12:53:10;10.40;;;5.23;;
11113;SDS011;5610;52.154;9.198;2023-05-24T12:55:55;8.70;;;5.40;;
11113;SDS011;5610;52.154;9.198;2023-05-24T12:58:43;8.93;;;5.17;;
11113;SDS011;5610;52.154;9.198;2023-05-24T13:01:28;8.87;;;5.40;;
11113;SDS011;5610;52.154;9.198;2023-05-24T13:04:13;12.37;;;6.97;;
11113;SDS011;5610;52.154;9.198;2023-05-24T13:07:01;11.67;;;5.90;;
11113;SDS011;5610;52.154;9.198;2023-05-24T13:09:46;7.90;;;5.80;;
11113;SDS011;5610;52.154;9.198;2023-05-24T13:12:32;9.30;;;6.30;;
11113;SDS011;5610;52.154;9.198;2023-05-24T13:15:17;10.20;;;5.80;;
11113;SDS011;5610;52.154;9.198;2023-05-24T13:18:05;15.17;;;5.90;;
11113;SDS011;5610;52.154;9.198;2023-05-24T13:20:51;12.03;;;5.87;;
11113;SDS011;5610;52.154;9.198;2023-05-24T13:23:38;11.13;;;6.63;;
11113;SDS011;5610;52.154;9.198;2023-05-24T13:26:25;10.13;;;6.80;;
11113;SDS011;5610;52.154;9.198;2023-05-24T13:29:11;13.63;;;7.73;;
11113;SDS011;5610;52.154;9.198;2023-05-24T13:31:56;11.83;;;6.93;;
11113;SDS011;5610;52.154;9.198;2023-05-24T13:34:42;9.80;;;6.83;;
11113;SDS011;5610;52.154;9.198;2023-05-24T13:37:27;9.20;;;7.07;;
11113;SDS011;5610;52.154;9.198;2023-05-24T13:40:13;13.47;;;7.10;;
11113;SDS011;5610;52.154;9.198;2023-05-24T13:42:59;10.20;;;6.83;;
11113;SDS011;5610;52.154;9.198;2023-05-24T13:45:44;10.63;;;6.30;;
11113;SDS011;5610;52.154;9.198;2023-05-24T13:48:29;12.23;;;7.20;;
11113;SDS011;5610;52.154;9.198;2023-05-24T13:51:15;16.53;;;8.60;;
11113;SDS011;5610;52.154;9.198;2023-05-24T13:54:02;16.73;;;8.37;;
11113;SDS011;5610;52.154;9.198;2023-05-24T13:56:51;14.87;;;7.90;;
11113;SDS011;5610;52.154;9.198;2023-05-24T13:59:39;14.20;;;7.70;;
11113;SDS011;5610;52.154;9.198;2023-05-24T14:02:25;15.00;;;7.17;;
11113;SDS011;5610;52.154;9.198;2023-05-24T14:05:10;12.13;;;7.40;;
11113;SDS011;5610;52.154;9.198;2023-05-24T14:07:56;11.80;;;6.60;;
11113;SDS011;5610;52.154;9.198;2023-05-24T14:10:42;14.70;;;7.33;;
11113;SDS011;5610;52.154;9.198;2023-05-24T14:13:30;17.50;;;7.50;;
11113;SDS011;5610;52.154;9.198;2023-05-24T14:16:16;15.33;;;7.07;;
11113;SDS011;5610;52.154;9.198;2023-05-24T14:19:02;15.67;;;7.70;;
11113;SDS011;5610;52.154;9.198;2023-05-24T14:21:47;13.87;;;8.13;;
11113;SDS011;5610;52.154;9.198;2023-05-24T14:24:32;15.90;;;7.00;;
11113;SDS011;5610;52.154;9.198;2023-05-24T14:27:17;12.30;;;6.93;;
11113;SDS011;5610;52.154;9.198;2023-05-24T14:30:05;16.67;;;7.17;;
11113;SDS011;5610;52.154;9.198;2023-05-24T14:32:51;11.20;;;6.23;;
11113;SDS011;5610;52.154;9.198;2023-05-24T14:35:37;17.60;;;6.80;;
11113;SDS011;5610;52.154;9.198;2023-05-24T14:38:22;18.00;;;7.50;;
11113;SDS011;5610;52.154;9.198;2023-05-24T14:41:08;14.93;;;7.03;;
11113;SDS011;5610;52.154;9.198;2023-05-24T14:43:54;18.57;;;7.33;;
11113;SDS011;5610;52.154;9.198;2023-05-24T14:46:40;16.70;;;8.50;;
11113;SDS011;5610;52.154;9.198;2023-05-24T14:49:26;17.70;;;7.87;;
11113;SDS011;5610;52.154;9.198;2023-05-24T14:52:11;18.73;;;8.43;;
11113;SDS011;5610;52.154;9.198;2023-05-24T14:54:56;13.97;;;7.33;;
11113;SDS011;5610;52.154;9.198;2023-05-24T14:57:41;16.60;;;7.20;;
11113;SDS011;5610;52.154;9.198;2023-05-24T15:00:27;17.00;;;7.27;;
11113;SDS011;5610;52.154;9.198;2023-05-24T15:03:13;14.40;;;7.80;;
11113;SDS011;5610;52.154;9.198;2023-05-24T15:05:59;14.00;;;7.50;;
11113;SDS011;5610;52.154;9.198;2023-05-24T15:08:44;20.50;;;7.20;;
11113;SDS011;5610;52.154;9.198;2023-05-24T15:11:29;16.00;;;6.90;;
11113;SDS011;5610;52.154;9.198;2023-05-24T15:14:14;15.60;;;8.00;;
11113;SDS011;5610;52.154;9.198;2023-05-24T15:16:59;14.83;;;7.40;;
11113;SDS011;5610;52.154;9.198;2023-05-24T15:19:46;13.47;;;7.57;;
11113;SDS011;5610;52.154;9.198;2023-05-24T15:22:31;12.67;;;6.70;;
11113;SDS011;5610;52.154;9.198;2023-05-24T15:25:17;21.60;;;8.20;;
11113;SDS011;5610;52.154;9.198;2023-05-24T15:28:02;14.73;;;6.97;;
11113;SDS011;5610;52.154;9.198;2023-05-24T15:30:48;15.20;;;6.90;;
11113;SDS011;5610;52.154;9.198;2023-05-24T15:33:34;16.20;;;7.57;;
11113;SDS011;5610;52.154;9.198;2023-05-24T15:36:21;12.63;;;7.07;;
11113;SDS011;5610;52.154;9.198;2023-05-24T15:39:07;13.93;;;6.53;;
11113;SDS011;5610;52.154;9.198;2023-05-24T15:41:52;11.37;;;6.47;;
11113;SDS011;5610;52.154;9.198;2023-05-24T15:44:37;15.00;;;7.30;;
11113;SDS011;5610;52.154;9.198;2023-05-24T15:47:23;18.20;;;7.20;;
11113;SDS011;5610;52.154;9.198;2023-05-24T15:50:10;12.23;;;6.57;;
11113;SDS011;5610;52.154;9.198;2023-05-24T15:52:57;17.03;;;6.43;;
11113;SDS011;5610;52.154;9.198;2023-05-24T15:55:43;25.77;;;8.30;;
11113;SDS011;5610;52.154;9.198;2023-05-24T15:58:29;16.00;;;7.43;;
11113;SDS011;5610;52.154;9.198;2023-05-24T16:01:15;11.43;;;6.57;;
11113;SDS011;5610;52.154;9.198;2023-05-24T16:04:00;19.20;;;8.20;;
11113;SDS011;5610;52.154;9.198;2023-05-24T16:06:45;17.27;;;7.77;;
11113;SDS011;5610;52.154;9.198;2023-05-24T16:09:32;15.03;;;7.00;;
11113;SDS011;5610;52.154;9.198;2023-05-24T16:12:17;14.50;;;7.00;;
11113;SDS011;5610;52.154;9.198;2023-05-24T16:15:02;14.77;;;7.87;;
11113;SDS011;5610;52.154;9.198;2023-05-24T16:17:49;16.67;;;7.33;;
11113;SDS011;5610;52.154;9.198;2023-05-24T16:20:34;16.33;;;7.37;;
11113;SDS011;5610;52.154;9.198;2023-05-24T16:23:20;13.67;;;7.20;;
11113;SDS011;5610;52.154;9.198;2023-05-24T16:26:08;14.20;;;7.40;;
11113;SDS011;5610;52.154;9.198;2023-05-24T16:28:53;17.77;;;7.90;;
11113;SDS011;5610;52.154;9.198;2023-05-24T16:31:38;14.80;;;7.70;;
11113;SDS011;5610;52.154;9.198;2023-05-24T16:34:24;19.93;;;7.97;;
11113;SDS011;5610;52.154;9.198;2023-05-24T16:37:09;11.77;;;7.20;;
11113;SDS011;5610;52.154;9.198;2023-05-24T16:39:54;13.80;;;7.03;;
11113;SDS011;5610;52.154;9.198;2023-05-24T16:42:40;17.13;;;7.60;;